This is the latest recevied weather packets stored in our database for station/object IZ8XTV-13. If no packets are shown the sender has not sent any weather packets the latest 1 day(s).
| Time | Temp. | Humidity | Pressure | Rain* | Wind** | Luminosity | Snow |
|---|---|---|---|---|---|---|---|
| 1778091337 | 20° C | 82% | 1014.8 hPa | 0 mm | - | - | - |
| 1778088893 | 20.56° C | 82% | 1014.4 hPa | 0 mm | - | - | - |
| 1778087060 | 21.11° C | 82% | 1014.2 hPa | 0 mm | - | - | - |
| 1778086703 | 21.67° C | 82% | 1014.3 hPa | 0 mm | - | - | - |
| 1778086090 | 21.67° C | 79% | 1014.3 hPa | 0 mm | - | - | - |
| 1778085479 | 21.67° C | 80% | 1014.3 hPa | 0 mm | - | - | - |
| 1778083643 | 22.22° C | 80% | 1014.3 hPa | 0 mm | - | - | - |
| 1778083032 | 22.78° C | 79% | 1014.3 hPa | 0 mm | - | - | - |
| 1778082421 | 23.33° C | 79% | 1014.3 hPa | 0 mm | - | - | - |
| 1778081810 | 23.33° C | 79% | 1014.3 hPa | 0 mm | - | - | - |
| 1778081199 | 23.33° C | 78% | 1014.2 hPa | 0 mm | - | - | - |
| 1778078752 | 24.44° C | 77% | 1013.9 hPa | 0 mm | - | - | - |
| 1778075694 | 25.56° C | 76% | 1014 hPa | 0 mm | - | - | - |
| 1778075081 | 25° C | 80% | 1014.2 hPa | 0 mm | - | - | - |
| 1778072636 | 25.56° C | 80% | 1014.2 hPa | 0 mm | - | - | - |
| 1778072025 | 25° C | 80% | 1014.1 hPa | 0 mm | - | - | - |
| 1778070802 | 25° C | 81% | 1014.1 hPa | 0 mm | - | - | - |
| 1778070191 | 25° C | 82% | 1014.3 hPa | 0 mm | - | - | - |
| 1778068968 | 25° C | 82% | 1014.3 hPa | 0 mm | - | - | - |
| 1778068355 | 26.11° C | 81% | 1014.3 hPa | 0 mm | - | - | - |
| 1778067744 | 25.56° C | 83% | 1014.2 hPa | 0 mm | - | - | - |
| 1778062242 | 22.78° C | 93% | 1014.7 hPa | 0 mm | - | - | - |
| 1778061631 | 22.78° C | 95% | 1014.8 hPa | 0 mm | - | - | - |
| 1778059794 | 21.11° C | 96% | 1015 hPa | 0 mm | - | - | - |
| 1778059183 | 21.67° C | 95% | 1014.8 hPa | 0 mm | - | - | - |
* Rain latest hour (hover to see other rain measurements)
** Current wind speed in m/s (hover to see current wind gust speed)